createdAt,value
2023-03-29T00:01:10.137Z,101236.03
2023-03-29T00:04:13.962Z,101241.34
2023-03-29T00:07:16.557Z,101240.59
2023-03-29T00:10:21.045Z,101239.72
2023-03-29T00:13:23.529Z,101232.84
2023-03-29T00:16:26.588Z,101226.81
2023-03-29T00:19:35.535Z,101237.75
2023-03-29T00:22:39.883Z,101230.16
2023-03-29T00:25:45.138Z,101232.63
2023-03-29T00:28:48.051Z,101230.63
2023-03-29T00:31:54.008Z,101227.16
2023-03-29T00:34:56.958Z,101230.72
2023-03-29T00:37:59.649Z,101238.38
2023-03-29T00:41:04.099Z,101239.06
2023-03-29T00:44:06.878Z,101244.91
2023-03-29T00:47:09.769Z,101242.41
2023-03-29T00:50:29.873Z,101237.37
2023-03-29T00:53:38.016Z,101233.13
2023-03-29T00:56:44.861Z,101251.03
2023-03-29T00:59:50.437Z,101244.94
2023-03-29T01:02:59.754Z,101227.91
2023-03-29T01:06:07.606Z,101227.28
2023-03-29T01:09:14.709Z,101229.81
2023-03-29T01:12:23.708Z,101230.47
2023-03-29T01:15:28.630Z,101222.69
2023-03-29T01:18:33.686Z,101223.53
2023-03-29T01:21:51.678Z,101227.00
2023-03-29T01:25:03.435Z,101220.28
2023-03-29T01:28:10.919Z,101216.09
2023-03-29T01:31:32.787Z,101219.59
2023-03-29T01:34:37.488Z,101223.56
2023-03-29T01:37:48.159Z,101211.56
2023-03-29T01:40:50.801Z,101217.44
2023-03-29T01:44:03.365Z,101217.38
2023-03-29T01:47:18.188Z,101218.91
2023-03-29T01:50:42.691Z,101217.19
2023-03-29T01:54:07.507Z,101218.94
2023-03-29T01:57:11.922Z,101211.53
2023-03-29T02:00:19.122Z,101211.16
2023-03-29T02:03:30.975Z,101210.53
2023-03-29T02:06:37.077Z,101215.53
2023-03-29T02:09:41.232Z,101219.84
2023-03-29T02:12:45.729Z,101225.06
2023-03-29T02:15:48.513Z,101218.31
2023-03-29T02:18:53.102Z,101215.53
2023-03-29T02:22:06.721Z,101214.72
2023-03-29T02:25:09.768Z,101213.16
2023-03-29T02:28:13.096Z,101216.53
2023-03-29T02:31:25.259Z,101218.34
2023-03-29T02:34:38.921Z,101213.31
2023-03-29T02:37:45.151Z,101226.00
2023-03-29T02:40:48.814Z,101224.19
2023-03-29T02:43:53.696Z,101217.34
2023-03-29T02:47:04.401Z,101221.53
2023-03-29T02:50:09.588Z,101230.81
2023-03-29T02:53:19.324Z,101233.37
2023-03-29T02:56:23.477Z,101236.53
2023-03-29T02:59:26.954Z,101231.22
2023-03-29T03:02:29.818Z,101238.69
2023-03-29T03:05:32.734Z,101235.56
2023-03-29T03:08:36.324Z,101240.72
2023-03-29T03:11:39.035Z,101241.47
2023-03-29T03:14:41.878Z,101240.31
2023-03-29T03:17:44.721Z,101243.56
2023-03-29T03:20:56.071Z,101253.53
2023-03-29T03:23:59.191Z,101247.84
2023-03-29T03:27:02.106Z,101235.97
2023-03-29T03:30:06.360Z,101241.03
2023-03-29T03:33:13.386Z,101247.84
2023-03-29T03:36:18.282Z,101249.22
2023-03-29T03:39:21.934Z,101244.84
2023-03-29T03:42:29.539Z,101253.13
2023-03-29T03:45:33.820Z,101253.63
2023-03-29T03:48:37.337Z,101259.41
2023-03-29T03:51:41.970Z,101254.37
2023-03-29T03:54:46.707Z,101255.09
2023-03-29T03:57:53.359Z,101256.91
2023-03-29T04:00:56.128Z,101255.22
2023-03-29T04:04:00.147Z,101252.59
2023-03-29T04:07:03.801Z,101256.78
2023-03-29T04:10:09.202Z,101260.09
2023-03-29T04:13:12.898Z,101260.06
2023-03-29T04:16:20.000Z,101257.66
2023-03-29T04:19:23.211Z,101251.75
2023-03-29T04:22:26.352Z,101258.47
2023-03-29T04:25:29.592Z,101250.75
2023-03-29T04:28:34.298Z,101262.66
2023-03-29T04:31:37.600Z,101264.28
2023-03-29T04:34:42.368Z,101263.63
2023-03-29T04:37:45.182Z,101257.69
2023-03-29T04:40:48.971Z,101256.81
2023-03-29T04:43:53.675Z,101258.72
2023-03-29T04:46:56.523Z,101254.59
2023-03-29T04:50:00.541Z,101252.19
2023-03-29T04:53:04.594Z,101253.38
2023-03-29T04:56:08.081Z,101260.47
2023-03-29T04:59:13.480Z,101255.72
2023-03-29T05:02:16.354Z,101256.81
2023-03-29T05:05:19.864Z,101262.22
2023-03-29T05:08:22.795Z,101267.59
2023-03-29T05:11:27.641Z,101272.06
2023-03-29T05:14:30.723Z,101268.84
2023-03-29T05:17:34.409Z,101269.91
2023-03-29T05:20:38.148Z,101267.59
2023-03-29T05:23:41.178Z,101269.38
2023-03-29T05:26:51.889Z,101269.53
2023-03-29T05:29:55.274Z,101257.84
2023-03-29T05:33:00.372Z,101264.72
2023-03-29T05:36:08.230Z,101253.87
2023-03-29T05:39:13.560Z,101261.78
2023-03-29T05:42:22.344Z,101262.81
2023-03-29T05:45:28.567Z,101264.66
2023-03-29T05:48:32.612Z,101265.62
2023-03-29T05:51:36.370Z,101273.38
2023-03-29T05:54:41.389Z,101278.56
2023-03-29T05:57:44.343Z,101281.19
2023-03-29T06:00:51.634Z,101276.16
2023-03-29T06:03:57.400Z,101277.97
2023-03-29T06:07:16.454Z,101280.63
2023-03-29T06:10:20.580Z,101286.66
2023-03-29T06:13:23.808Z,101288.38
2023-03-29T06:16:26.671Z,101291.84
2023-03-29T06:19:34.947Z,101280.75
2023-03-29T06:22:39.038Z,101284.19
2023-03-29T06:25:41.621Z,101283.31
2023-03-29T06:28:45.218Z,101291.06
2023-03-29T06:31:48.286Z,101293.63
2023-03-29T06:34:55.841Z,101289.31
2023-03-29T06:37:59.111Z,101297.87
2023-03-29T06:41:04.450Z,101302.16
2023-03-29T06:44:08.856Z,101300.44
2023-03-29T06:47:12.060Z,101313.25
2023-03-29T06:50:14.788Z,101304.69
2023-03-29T06:53:18.196Z,101299.50
2023-03-29T06:56:22.312Z,101301.22
2023-03-29T06:59:28.962Z,101300.28
2023-03-29T07:02:32.093Z,101305.38
2023-03-29T07:05:40.715Z,101303.69
2023-03-29T07:08:43.904Z,101307.91
2023-03-29T07:11:47.067Z,101313.84
2023-03-29T07:14:50.115Z,101316.41
2023-03-29T07:17:54.306Z,101324.22
2023-03-29T07:20:57.922Z,101324.09
2023-03-29T07:24:01.843Z,101329.22
2023-03-29T07:27:05.029Z,101327.53
2023-03-29T07:30:11.321Z,101325.81
2023-03-29T07:33:14.518Z,101328.34
2023-03-29T07:36:18.318Z,101332.56
2023-03-29T07:39:22.374Z,101334.22
2023-03-29T07:42:28.176Z,101336.56
2023-03-29T07:45:31.392Z,101335.37
2023-03-29T07:48:37.160Z,101338.63
2023-03-29T07:51:40.404Z,101339.09
2023-03-29T07:54:43.643Z,101334.78
2023-03-29T07:57:49.212Z,101331.22
2023-03-29T08:00:53.172Z,101338.09
2023-03-29T08:03:56.904Z,101343.19
2023-03-29T08:07:01.549Z,101340.47
2023-03-29T08:10:05.934Z,101341.09
2023-03-29T08:13:10.453Z,101339.25
2023-03-29T08:16:13.617Z,101341.69
2023-03-29T08:19:17.014Z,101334.87
2023-03-29T08:22:22.053Z,101328.63
2023-03-29T08:25:27.862Z,101331.13
2023-03-29T08:28:30.807Z,101329.03
2023-03-29T08:31:33.730Z,101323.28
2023-03-29T08:34:36.809Z,101320.78
2023-03-29T08:37:39.998Z,101322.13
2023-03-29T08:40:42.942Z,101321.94
2023-03-29T08:43:50.393Z,101322.28
2023-03-29T08:47:32.885Z,101323.66
2023-03-29T08:50:40.562Z,101323.16
2023-03-29T08:53:49.034Z,101324.84
2023-03-29T08:56:54.456Z,101321.56
2023-03-29T09:00:00.746Z,101315.63
2023-03-29T09:03:19.481Z,101318.59
2023-03-29T09:06:23.036Z,101306.12
2023-03-29T09:09:34.558Z,101298.13
2023-03-29T09:13:14.187Z,101302.13
2023-03-29T09:16:28.958Z,101297.47
2023-03-29T09:19:46.626Z,101283.78
2023-03-29T09:23:40.618Z,101277.28
2023-03-29T09:26:59.187Z,101285.84
2023-03-29T09:30:28.874Z,101283.06
2023-03-29T09:33:42.702Z,101281.88
2023-03-29T09:36:55.331Z,101268.75
2023-03-29T09:39:59.929Z,101275.00
2023-03-29T09:43:12.063Z,101270.50
2023-03-29T09:46:26.482Z,101268.19
2023-03-29T09:49:38.195Z,101268.84
2023-03-29T09:52:41.308Z,101254.72
2023-03-29T09:55:49.101Z,101255.22
2023-03-29T09:58:53.677Z,101258.44
2023-03-29T10:02:10.239Z,101248.44
2023-03-29T10:05:18.108Z,101245.50
2023-03-29T10:08:30.343Z,101243.00
2023-03-29T10:11:35.629Z,101243.78
2023-03-29T10:14:43.306Z,101232.53
2023-03-29T10:17:47.779Z,101229.31
2023-03-29T10:20:50.436Z,101222.25
2023-03-29T10:23:59.569Z,101222.75
2023-03-29T10:27:06.893Z,101223.94
2023-03-29T10:30:21.487Z,101223.03
2023-03-29T10:33:27.365Z,101213.25
2023-03-29T10:36:30.741Z,101213.47
2023-03-29T10:39:34.869Z,101211.22
2023-03-29T10:42:47.211Z,101208.53
2023-03-29T10:45:52.395Z,101201.22
2023-03-29T10:48:58.739Z,101200.94
2023-03-29T10:52:02.090Z,101195.12
2023-03-29T10:55:05.436Z,101204.28
2023-03-29T10:58:39.069Z,101188.19
2023-03-29T11:01:54.613Z,101186.81
2023-03-29T11:05:15.897Z,101175.91
2023-03-29T11:08:21.404Z,101175.72
2023-03-29T11:11:45.627Z,101174.88
2023-03-29T11:15:03.516Z,101170.72
2023-03-29T11:18:43.758Z,101169.81
2023-03-29T11:22:03.089Z,101173.47
2023-03-29T11:25:26.615Z,101169.16
2023-03-29T11:28:37.810Z,101164.22
2023-03-29T11:32:19.030Z,101162.41
2023-03-29T11:36:01.697Z,101161.03
2023-03-29T11:39:31.828Z,101159.47
2023-03-29T11:42:41.960Z,101153.00
2023-03-29T11:46:09.994Z,101138.41
2023-03-29T11:49:21.483Z,101140.00
2023-03-29T11:52:36.447Z,101129.97
2023-03-29T11:55:41.510Z,101135.91
2023-03-29T11:58:52.184Z,101138.97
2023-03-29T12:02:00.533Z,101134.91
2023-03-29T12:05:22.247Z,101139.81
2023-03-29T12:08:35.565Z,101131.78
2023-03-29T12:12:09.489Z,101136.88
2023-03-29T12:15:24.834Z,101123.19
2023-03-29T12:18:38.978Z,101110.59
2023-03-29T12:21:42.889Z,101104.03
2023-03-29T12:24:51.908Z,101106.97
2023-03-29T12:28:46.046Z,101113.22
2023-03-29T12:32:03.763Z,101104.19
2023-03-29T12:35:35.842Z,101091.16
2023-03-29T12:38:42.381Z,101085.50
2023-03-29T12:41:51.692Z,101090.47
2023-03-29T12:44:59.704Z,101077.78
2023-03-29T12:48:02.362Z,101080.78
2023-03-29T12:51:08.849Z,101083.69
2023-03-29T12:54:20.255Z,101077.84
2023-03-29T12:57:28.581Z,101075.91
2023-03-29T13:00:42.779Z,101070.13
2023-03-29T13:03:45.857Z,101070.47
2023-03-29T13:06:48.308Z,101069.59
2023-03-29T13:09:59.636Z,101080.38
2023-03-29T13:13:18.339Z,101071.91
2023-03-29T13:16:30.207Z,101062.38
2023-03-29T13:19:41.730Z,101051.56
2023-03-29T13:23:01.802Z,101053.50
2023-03-29T13:26:27.207Z,101058.03
2023-03-29T13:29:43.275Z,101052.69
2023-03-29T13:33:21.020Z,101045.88
2023-03-29T13:36:27.124Z,101041.03
2023-03-29T13:39:32.375Z,101030.69
2023-03-29T13:42:35.419Z,101044.84
2023-03-29T13:45:38.969Z,101030.13
2023-03-29T13:48:41.778Z,101031.94
2023-03-29T13:51:53.591Z,101023.16
2023-03-29T13:55:10.680Z,101027.59
2023-03-29T13:58:25.597Z,101015.97
2023-03-29T14:01:58.155Z,101018.78
2023-03-29T14:05:04.210Z,101020.19
2023-03-29T14:08:19.594Z,101007.69
2023-03-29T14:11:26.070Z,101012.28
2023-03-29T14:14:32.136Z,101014.72
2023-03-29T14:17:36.834Z,101014.66
2023-03-29T14:20:43.997Z,101005.56
2023-03-29T14:23:54.219Z,101003.78
2023-03-29T14:26:56.778Z,101000.53
2023-03-29T14:30:00.791Z,101001.44
2023-03-29T14:33:05.275Z,101000.66
2023-03-29T14:36:16.615Z,100998.44
2023-03-29T14:39:22.396Z,100994.94
2023-03-29T14:42:27.602Z,100998.84
2023-03-29T14:45:30.389Z,101005.22
2023-03-29T14:48:34.874Z,100992.56
2023-03-29T14:51:40.494Z,100988.12
2023-03-29T14:54:47.522Z,100987.00
2023-03-29T14:57:53.193Z,100993.00
2023-03-29T15:00:56.103Z,100985.31
2023-03-29T15:04:06.365Z,100979.00
2023-03-29T15:07:09.759Z,100981.41
2023-03-29T15:10:18.976Z,100988.38
2023-03-29T15:13:24.740Z,100984.44
2023-03-29T15:16:30.373Z,100978.94
2023-03-29T15:19:34.358Z,100978.50
2023-03-29T15:22:38.970Z,100975.75
2023-03-29T15:25:55.912Z,100977.78
2023-03-29T15:29:08.035Z,100969.28
2023-03-29T15:32:21.242Z,100965.41
2023-03-29T15:35:25.155Z,100967.16
2023-03-29T15:38:36.717Z,100968.16
2023-03-29T15:41:44.956Z,100965.91
2023-03-29T15:44:47.739Z,100954.59
2023-03-29T15:47:50.383Z,100953.47
2023-03-29T15:50:54.645Z,100952.28
2023-03-29T15:53:57.176Z,100951.81
2023-03-29T15:57:03.810Z,100952.22
2023-03-29T16:00:08.047Z,100948.28
2023-03-29T16:03:16.135Z,100942.88
2023-03-29T16:06:22.128Z,100940.44
2023-03-29T16:09:25.783Z,100941.59
2023-03-29T16:12:28.936Z,100941.91
2023-03-29T16:15:32.477Z,100931.50
2023-03-29T16:18:35.764Z,100938.47
2023-03-29T16:21:38.661Z,100928.09
2023-03-29T16:24:41.649Z,100928.78
2023-03-29T16:27:44.219Z,100928.41
2023-03-29T16:30:47.348Z,100935.25
2023-03-29T16:33:49.934Z,100924.09
2023-03-29T16:36:53.201Z,100920.84
2023-03-29T16:39:56.778Z,100913.34
2023-03-29T16:43:00.036Z,100921.41
2023-03-29T16:46:04.043Z,100921.06
2023-03-29T16:49:08.150Z,100920.53
2023-03-29T16:52:10.820Z,100922.09
2023-03-29T16:55:18.898Z,100925.13
2023-03-29T16:58:23.109Z,100926.38
2023-03-29T17:01:27.851Z,100923.00
2023-03-29T17:04:30.567Z,100920.41
2023-03-29T17:07:33.715Z,100916.13
2023-03-29T17:10:36.233Z,100917.12
2023-03-29T17:13:39.198Z,100915.72
2023-03-29T17:16:41.849Z,100926.19
2023-03-29T17:19:44.637Z,100906.88
2023-03-29T17:22:51.500Z,100912.03
2023-03-29T17:25:55.970Z,100917.38
2023-03-29T17:29:00.833Z,100925.84
2023-03-29T17:32:03.961Z,100927.91
2023-03-29T17:35:07.014Z,100928.03
2023-03-29T17:38:10.968Z,100930.38
2023-03-29T17:41:13.656Z,100937.53
2023-03-29T17:44:16.458Z,100937.59
2023-03-29T17:47:19.029Z,100940.81
2023-03-29T17:50:22.123Z,100939.31
2023-03-29T17:53:25.226Z,100941.38
2023-03-29T17:56:28.384Z,100945.81
2023-03-29T17:59:31.226Z,100939.56
2023-03-29T18:02:34.544Z,100953.66
2023-03-29T18:05:37.530Z,100954.44
2023-03-29T18:08:41.563Z,100955.69
2023-03-29T18:11:46.404Z,100958.13
2023-03-29T18:14:48.981Z,100962.47
2023-03-29T18:17:51.988Z,100958.38
2023-03-29T18:20:54.534Z,100961.97
2023-03-29T18:23:57.602Z,100967.97
2023-03-29T18:27:00.319Z,100966.09
2023-03-29T18:30:03.544Z,100979.16
2023-03-29T18:33:06.211Z,100978.47
2023-03-29T18:36:13.352Z,100978.53
2023-03-29T18:39:16.293Z,100983.66
2023-03-29T18:42:21.872Z,100981.28
2023-03-29T18:45:24.537Z,100979.44
2023-03-29T18:48:27.662Z,100976.25
2023-03-29T18:51:31.068Z,100979.81
2023-03-29T18:54:34.284Z,100976.19
2023-03-29T18:57:37.136Z,100974.66
2023-03-29T19:00:41.321Z,100977.38
2023-03-29T19:03:44.348Z,100979.56
2023-03-29T19:06:49.339Z,100977.06
2023-03-29T19:09:51.939Z,100977.09
2023-03-29T19:12:54.763Z,100979.72
2023-03-29T19:15:57.410Z,100979.66
2023-03-29T19:19:00.294Z,100986.69
2023-03-29T19:22:03.178Z,100984.25
2023-03-29T19:25:06.582Z,100979.22
2023-03-29T19:28:10.361Z,100982.75
2023-03-29T19:31:13.263Z,100981.03
2023-03-29T19:34:19.618Z,100988.66
2023-03-29T19:37:22.472Z,100992.25
2023-03-29T19:43:31.677Z,100992.41
2023-03-29T19:49:38.305Z,100988.06
2023-03-29T19:52:41.224Z,100981.97
2023-03-29T19:55:45.413Z,100993.22
2023-03-29T19:58:48.256Z,100979.47
2023-03-29T20:01:51.358Z,100985.63
2023-03-29T20:04:55.071Z,100977.19
2023-03-29T20:07:57.693Z,100971.28
2023-03-29T20:11:03.945Z,100973.06
2023-03-29T20:14:06.707Z,100976.50
2023-03-29T20:17:09.502Z,100975.31
2023-03-29T20:20:13.881Z,100972.78
2023-03-29T20:23:17.348Z,100961.78
2023-03-29T20:26:19.819Z,100962.78
2023-03-29T20:29:22.749Z,100970.59
2023-03-29T20:32:25.731Z,100967.81
2023-03-29T20:35:28.596Z,100964.47
2023-03-29T20:38:31.447Z,100955.84
2023-03-29T20:41:38.343Z,100951.44
2023-03-29T20:44:40.984Z,100956.50
2023-03-29T20:47:57.680Z,100957.34
2023-03-29T20:51:02.923Z,100948.66
2023-03-29T20:54:07.682Z,100954.50
2023-03-29T20:57:14.106Z,100953.78
2023-03-29T21:00:19.629Z,100951.31
2023-03-29T21:03:22.374Z,100947.09
2023-03-29T21:06:25.260Z,100944.56
2023-03-29T21:09:27.768Z,100946.41
2023-03-29T21:12:30.859Z,100942.13
2023-03-29T21:15:34.591Z,100949.00
2023-03-29T21:18:39.025Z,100943.00
2023-03-29T21:21:44.985Z,100939.56
2023-03-29T21:24:47.879Z,100935.25
2023-03-29T21:27:50.380Z,100941.25
2023-03-29T21:30:53.252Z,100946.44
2023-03-29T21:33:56.584Z,100941.16
2023-03-29T21:36:59.409Z,100939.34
2023-03-29T21:40:05.712Z,100940.97
2023-03-29T21:43:09.198Z,100938.31
2023-03-29T21:46:12.116Z,100935.72
2023-03-29T21:49:14.895Z,100939.16
2023-03-29T21:52:18.081Z,100938.09
2023-03-29T21:55:21.118Z,100934.12
2023-03-29T21:58:23.693Z,100930.91
2023-03-29T22:01:27.245Z,100934.38
2023-03-29T22:04:37.164Z,100936.22
2023-03-29T22:07:40.106Z,100936.22
2023-03-29T22:10:42.915Z,100935.47
2023-03-29T22:13:46.257Z,100936.34
2023-03-29T22:16:49.270Z,100930.19
2023-03-29T22:19:52.464Z,100937.22
2023-03-29T22:22:55.702Z,100947.44
2023-03-29T22:25:58.199Z,100937.03
2023-03-29T22:29:01.798Z,100930.03
2023-03-29T22:32:04.951Z,100936.31
2023-03-29T22:35:08.805Z,100936.22
2023-03-29T22:38:11.342Z,100933.72
2023-03-29T22:41:14.846Z,100936.22
2023-03-29T22:44:17.489Z,100939.78
2023-03-29T22:47:20.582Z,100936.44
2023-03-29T22:50:23.097Z,100942.28
2023-03-29T22:53:27.138Z,100944.84
2023-03-29T22:56:29.709Z,100943.06
2023-03-29T22:59:32.575Z,100947.66
2023-03-29T23:02:35.440Z,100944.41
2023-03-29T23:05:39.004Z,100939.41
2023-03-29T23:08:41.988Z,100943.94
2023-03-29T23:11:44.808Z,100937.25
2023-03-29T23:14:47.410Z,100943.28
2023-03-29T23:17:50.731Z,100948.34
2023-03-29T23:20:54.793Z,100945.75
2023-03-29T23:23:57.540Z,100944.78
2023-03-29T23:27:01.188Z,100947.47
2023-03-29T23:30:04.518Z,100935.31
2023-03-29T23:33:07.856Z,100935.56
2023-03-29T23:36:16.491Z,100940.81
2023-03-29T23:39:19.254Z,100932.31
2023-03-29T23:42:22.647Z,100942.56
2023-03-29T23:45:29.265Z,100934.06
2023-03-29T23:48:32.730Z,100936.75
2023-03-29T23:51:36.786Z,100940.09
2023-03-29T23:54:39.620Z,100943.59
2023-03-29T23:57:42.845Z,100930.62
